createdAt,value
2022-09-15T00:01:15.474Z,14.70
2022-09-15T00:03:43.139Z,12.30
2022-09-15T00:06:11.057Z,11.40
2022-09-15T00:08:39.313Z,11.27
2022-09-15T00:11:17.571Z,10.88
2022-09-15T00:13:45.614Z,10.63
2022-09-15T00:16:15.499Z,8.57
2022-09-15T00:18:44.939Z,9.15
2022-09-15T00:21:15.771Z,11.75
2022-09-15T00:23:43.952Z,12.57
2022-09-15T00:26:13.906Z,10.90
2022-09-15T00:28:41.907Z,9.93
2022-09-15T00:31:13.130Z,8.50
2022-09-15T00:33:41.009Z,15.15
2022-09-15T00:36:11.459Z,10.10
2022-09-15T00:38:39.125Z,11.15
2022-09-15T00:41:08.456Z,12.10
2022-09-15T00:43:50.427Z,12.40
2022-09-15T00:46:40.594Z,10.40
2022-09-15T00:49:34.669Z,12.35
2022-09-15T00:52:13.386Z,13.00
2022-09-15T00:55:02.630Z,12.25
2022-09-15T00:57:58.764Z,15.10
2022-09-15T01:00:28.193Z,15.30
2022-09-15T01:02:57.476Z,12.73
2022-09-15T01:05:48.014Z,12.88
2022-09-15T01:08:22.470Z,13.10
2022-09-15T01:10:52.049Z,13.65
2022-09-15T01:13:19.468Z,18.25
2022-09-15T01:15:58.469Z,11.13
2022-09-15T01:18:48.800Z,13.45
2022-09-15T01:21:29.232Z,15.70
2022-09-15T01:24:14.222Z,13.77
2022-09-15T01:26:57.737Z,16.73
2022-09-15T01:29:43.288Z,13.13
2022-09-15T01:32:53.759Z,14.90
2022-09-15T01:35:25.026Z,9.90
2022-09-15T01:38:18.349Z,11.45
2022-09-15T01:41:12.592Z,9.93
2022-09-15T01:43:56.144Z,15.20
2022-09-15T01:46:26.229Z,12.90
2022-09-15T01:48:56.491Z,10.27
2022-09-15T01:51:26.791Z,13.25
2022-09-15T01:53:55.748Z,10.82
2022-09-15T01:56:23.234Z,12.27
2022-09-15T01:58:51.445Z,9.35
2022-09-15T02:01:29.706Z,13.45
2022-09-15T02:04:06.949Z,10.02
2022-09-15T02:06:39.349Z,10.40
2022-09-15T02:09:15.237Z,14.35
2022-09-15T02:12:02.891Z,10.05
2022-09-15T02:15:03.299Z,13.43
2022-09-15T02:17:36.129Z,14.07
2022-09-15T02:20:17.851Z,15.43
2022-09-15T02:22:50.403Z,13.85
2022-09-15T02:25:23.903Z,12.73
2022-09-15T02:27:55.112Z,16.10
2022-09-15T02:30:23.420Z,10.48
2022-09-15T02:32:56.491Z,12.43
2022-09-15T02:35:26.954Z,11.30
2022-09-15T02:37:56.181Z,13.93
2022-09-15T02:40:24.030Z,11.45
2022-09-15T02:42:56.265Z,16.67
2022-09-15T02:45:26.976Z,12.23
2022-09-15T02:47:54.643Z,12.57
2022-09-15T02:50:22.385Z,13.55
2022-09-15T02:52:49.797Z,21.10
2022-09-15T02:55:17.195Z,12.13
2022-09-15T02:57:44.505Z,11.35
2022-09-15T03:00:13.785Z,11.13
2022-09-15T03:02:42.238Z,9.65
2022-09-15T03:05:10.298Z,15.65
2022-09-15T03:07:38.517Z,13.77
2022-09-15T03:10:07.383Z,10.02
2022-09-15T03:12:42.757Z,10.80
2022-09-15T03:15:12.289Z,13.32
2022-09-15T03:17:41.711Z,11.88
2022-09-15T03:20:12.094Z,12.90
2022-09-15T03:22:39.473Z,16.48
2022-09-15T03:25:07.862Z,12.85
2022-09-15T03:27:36.126Z,10.55
2022-09-15T03:30:05.234Z,11.35
2022-09-15T03:32:32.592Z,11.70
2022-09-15T03:34:59.999Z,9.90
2022-09-15T03:37:27.857Z,12.82
2022-09-15T03:39:55.997Z,13.80
2022-09-15T03:42:23.569Z,16.42
2022-09-15T03:44:50.940Z,12.13
2022-09-15T03:47:18.310Z,11.10
2022-09-15T03:49:45.699Z,17.60
2022-09-15T03:52:13.041Z,17.50
2022-09-15T03:54:41.455Z,15.20
2022-09-15T03:57:08.862Z,12.43
2022-09-15T03:59:36.312Z,10.45
2022-09-15T04:02:03.873Z,8.77
2022-09-15T04:04:32.112Z,16.60
2022-09-15T04:06:59.729Z,15.48
2022-09-15T04:09:27.240Z,10.73
2022-09-15T04:11:54.638Z,14.27
2022-09-15T04:14:21.960Z,13.98
2022-09-15T04:16:49.388Z,12.35
2022-09-15T04:19:16.777Z,12.77
2022-09-15T04:21:45.736Z,14.85
2022-09-15T04:24:13.469Z,11.93
2022-09-15T04:26:40.816Z,11.90
2022-09-15T04:29:14.257Z,13.40
2022-09-15T04:31:42.183Z,11.50
2022-09-15T04:34:10.186Z,10.18
2022-09-15T04:36:37.673Z,15.02
2022-09-15T04:39:06.683Z,11.57
2022-09-15T04:41:34.179Z,15.00
2022-09-15T04:44:02.182Z,12.98
2022-09-15T04:46:29.586Z,12.63
2022-09-15T04:48:57.543Z,14.55
2022-09-15T04:51:25.563Z,11.05
2022-09-15T04:53:53.463Z,8.68
2022-09-15T04:56:24.434Z,9.93
2022-09-15T04:59:01.097Z,14.68
2022-09-15T05:01:34.375Z,12.98
2022-09-15T05:04:04.080Z,13.20
2022-09-15T05:06:32.342Z,15.98
2022-09-15T05:08:59.750Z,11.50
2022-09-15T05:11:28.347Z,11.65
2022-09-15T05:13:55.747Z,11.40
2022-09-15T05:16:29.894Z,12.38
2022-09-15T05:19:00.107Z,9.88
2022-09-15T05:21:28.002Z,15.05
2022-09-15T05:23:55.588Z,11.05
2022-09-15T05:26:29.007Z,12.85
2022-09-15T05:28:57.690Z,10.48
2022-09-15T05:31:27.879Z,8.23
2022-09-15T05:33:55.364Z,7.20
2022-09-15T05:36:25.416Z,10.43
2022-09-15T05:38:54.249Z,9.55
2022-09-15T05:41:21.925Z,12.45
2022-09-15T05:43:50.845Z,15.18
2022-09-15T05:46:20.555Z,10.88
2022-09-15T05:48:48.132Z,15.00
2022-09-15T05:51:15.735Z,10.77
2022-09-15T05:53:43.283Z,11.70
2022-09-15T05:56:13.951Z,12.57
2022-09-15T05:58:43.150Z,16.40
2022-09-15T06:01:22.937Z,14.77
2022-09-15T06:03:50.830Z,13.35
2022-09-15T06:06:18.742Z,13.93
2022-09-15T06:08:51.869Z,15.43
2022-09-15T06:11:30.300Z,14.73
2022-09-15T06:14:06.015Z,14.43
2022-09-15T06:16:35.543Z,20.42
2022-09-15T06:19:03.444Z,13.48
2022-09-15T06:21:32.398Z,16.02
2022-09-15T06:24:03.272Z,10.00
2022-09-15T06:26:30.770Z,12.73
2022-09-15T06:29:02.908Z,13.68
2022-09-15T06:34:03.062Z,25.40
2022-09-15T06:36:31.141Z,20.13
2022-09-15T06:38:59.593Z,13.82
2022-09-15T06:41:38.172Z,15.55
2022-09-15T06:44:21.529Z,16.27
2022-09-15T06:46:50.344Z,18.75
2022-09-15T06:49:17.898Z,21.77
2022-09-15T06:51:45.550Z,18.20
2022-09-15T06:54:14.610Z,22.13
2022-09-15T06:56:42.658Z,18.85
2022-09-15T06:59:13.707Z,20.98
2022-09-15T07:01:41.507Z,22.30
2022-09-15T07:04:10.125Z,15.57
2022-09-15T07:06:39.385Z,18.27
2022-09-15T07:09:07.160Z,20.45
2022-09-15T07:11:34.696Z,18.42
2022-09-15T07:14:02.261Z,15.48
2022-09-15T07:16:30.567Z,27.02
2022-09-15T07:19:00.557Z,25.08
2022-09-15T07:21:28.423Z,25.65
2022-09-15T07:23:57.433Z,31.42
2022-09-15T07:26:27.426Z,38.53
2022-09-15T07:29:00.352Z,36.45
2022-09-15T07:31:31.803Z,39.17
2022-09-15T07:34:00.040Z,39.95
2022-09-15T07:36:27.491Z,37.70
2022-09-15T07:38:54.841Z,30.02
2022-09-15T07:41:24.957Z,31.10
2022-09-15T07:43:54.666Z,36.38
2022-09-15T07:46:23.840Z,24.67
2022-09-15T07:48:56.323Z,30.13
2022-09-15T07:51:24.996Z,22.75
2022-09-15T07:53:52.973Z,18.42
2022-09-15T07:56:20.978Z,21.70
2022-09-15T07:58:49.406Z,26.15
2022-09-15T08:01:18.206Z,25.70
2022-09-15T08:03:48.902Z,23.73
2022-09-15T08:06:19.490Z,23.08
2022-09-15T08:08:47.418Z,20.05
2022-09-15T08:11:19.736Z,24.25
2022-09-15T08:13:49.434Z,21.95
2022-09-15T08:16:20.400Z,19.90
2022-09-15T08:18:49.153Z,23.33
2022-09-15T08:21:20.213Z,13.00
2022-09-15T08:23:56.184Z,20.45
2022-09-15T08:26:25.444Z,16.48
2022-09-15T08:28:53.330Z,13.73
2022-09-15T08:31:21.132Z,19.23
2022-09-15T08:33:53.608Z,25.02
2022-09-15T08:36:21.288Z,15.98
2022-09-15T08:38:48.866Z,15.85
2022-09-15T08:41:24.473Z,19.42
2022-09-15T08:43:59.353Z,18.15
2022-09-15T08:46:37.186Z,18.17
2022-09-15T08:49:50.110Z,16.25
2022-09-15T08:52:37.965Z,19.20
2022-09-15T08:55:14.727Z,15.35
2022-09-15T08:57:42.234Z,19.58
2022-09-15T09:00:16.787Z,22.23
2022-09-15T09:03:21.663Z,17.27
2022-09-15T09:06:20.104Z,19.65
2022-09-15T09:08:50.497Z,18.80
2022-09-15T09:11:52.678Z,20.17
2022-09-15T09:14:38.206Z,25.80
2022-09-15T09:17:05.564Z,24.85
2022-09-15T09:19:42.022Z,26.50
2022-09-15T09:22:17.828Z,16.17
2022-09-15T09:24:48.283Z,15.57
2022-09-15T09:27:24.330Z,19.10
2022-09-15T09:30:10.860Z,26.88
2022-09-15T09:32:46.286Z,16.48
2022-09-15T09:35:24.945Z,14.50
2022-09-15T09:37:53.522Z,15.10
2022-09-15T09:40:21.574Z,13.68
2022-09-15T09:42:49.303Z,13.00
2022-09-15T09:45:18.693Z,20.50
2022-09-15T09:47:49.048Z,12.00
2022-09-15T09:50:43.208Z,14.85
2022-09-15T09:53:31.072Z,17.13
2022-09-15T09:56:23.928Z,16.48
2022-09-15T09:58:52.058Z,14.13
2022-09-15T10:01:21.816Z,14.98
2022-09-15T10:03:49.330Z,12.18
2022-09-15T10:06:19.064Z,13.27
2022-09-15T10:08:56.347Z,9.93
2022-09-15T10:11:42.015Z,14.43
2022-09-15T10:14:20.051Z,11.57
2022-09-15T10:17:04.273Z,12.80
2022-09-15T10:19:36.631Z,14.20
2022-09-15T10:22:05.130Z,10.00
2022-09-15T10:24:42.286Z,13.57
2022-09-15T10:27:26.240Z,11.20
2022-09-15T10:29:54.572Z,10.07
2022-09-15T10:32:31.579Z,10.98
2022-09-15T10:35:13.008Z,9.65
2022-09-15T10:37:58.906Z,12.03
2022-09-15T10:40:50.971Z,9.40
2022-09-15T10:43:18.322Z,11.48
2022-09-15T10:45:49.151Z,9.73
2022-09-15T10:48:45.444Z,11.52
2022-09-15T10:51:31.076Z,12.73
2022-09-15T10:54:13.591Z,11.30
2022-09-15T10:56:52.390Z,14.00
2022-09-15T10:59:38.146Z,9.50
2022-09-15T11:02:08.421Z,10.88
2022-09-15T11:04:50.882Z,8.18
2022-09-15T11:07:21.114Z,12.88
2022-09-15T11:10:01.763Z,20.50
2022-09-15T11:12:45.259Z,12.10
2022-09-15T11:15:28.196Z,20.83
2022-09-15T11:18:07.341Z,18.02
2022-09-15T11:20:51.397Z,14.32
2022-09-15T11:23:44.146Z,16.70
2022-09-15T11:26:32.619Z,10.80
2022-09-15T11:29:17.682Z,10.07
2022-09-15T11:31:50.747Z,16.35
2022-09-15T11:34:25.245Z,11.43
2022-09-15T11:37:17.242Z,12.23
2022-09-15T11:39:53.556Z,11.20
2022-09-15T11:42:31.129Z,13.00
2022-09-15T11:44:59.620Z,11.90
2022-09-15T11:47:45.057Z,9.30
2022-09-15T11:50:19.502Z,11.48
2022-09-15T11:52:52.345Z,16.88
2022-09-15T11:55:40.385Z,9.43
2022-09-15T11:58:21.823Z,13.18
2022-09-15T12:00:55.185Z,7.47
2022-09-15T12:03:28.696Z,9.90
2022-09-15T12:06:05.619Z,11.00
2022-09-15T12:08:58.071Z,9.43
2022-09-15T12:13:55.263Z,10.63
2022-09-15T12:16:23.776Z,12.60
2022-09-15T12:19:37.583Z,11.98
2022-09-15T12:22:09.772Z,9.57
2022-09-15T12:25:01.468Z,8.60
2022-09-15T12:27:29.653Z,8.77
2022-09-15T12:29:59.875Z,8.63
2022-09-15T12:32:33.322Z,10.68
2022-09-15T12:35:02.838Z,10.93
2022-09-15T12:37:37.323Z,10.43
2022-09-15T12:40:07.578Z,9.25
2022-09-15T12:42:37.083Z,9.48
2022-09-15T12:45:27.447Z,11.23
2022-09-15T12:48:03.746Z,10.82
2022-09-15T12:50:37.484Z,4.78
2022-09-15T12:53:21.105Z,12.85
2022-09-15T12:55:58.930Z,8.25
2022-09-15T12:58:32.174Z,6.38
2022-09-15T13:01:18.814Z,8.15
2022-09-15T13:03:47.498Z,6.80
2022-09-15T13:06:38.477Z,4.97
2022-09-15T13:09:05.936Z,8.60
2022-09-15T13:11:51.116Z,8.95
2022-09-15T13:14:35.696Z,9.70
2022-09-15T13:17:20.050Z,9.45
2022-09-15T13:19:50.373Z,8.43
2022-09-15T13:22:20.786Z,11.60
2022-09-15T13:25:07.033Z,9.82
2022-09-15T13:27:50.387Z,13.70
2022-09-15T13:30:21.261Z,9.55
2022-09-15T13:33:05.009Z,10.30
2022-09-15T13:35:56.780Z,14.93
2022-09-15T13:38:42.690Z,13.57
2022-09-15T13:41:24.712Z,16.73
2022-09-15T13:44:29.739Z,11.10
2022-09-15T13:47:24.976Z,13.95
2022-09-15T13:50:01.568Z,11.55
2022-09-15T13:53:00.817Z,10.10
2022-09-15T13:55:34.037Z,13.75
2022-09-15T14:00:53.890Z,18.95
2022-09-15T14:03:28.141Z,13.35
2022-09-15T14:05:57.767Z,10.52
2022-09-15T14:08:32.641Z,13.93
2022-09-15T14:11:10.723Z,12.82
2022-09-15T14:13:47.627Z,12.15
2022-09-15T14:16:28.121Z,11.00
2022-09-15T14:18:58.374Z,8.73
2022-09-15T14:21:34.557Z,13.13
2022-09-15T14:24:16.054Z,12.85
2022-09-15T14:26:43.698Z,10.35
2022-09-15T14:29:24.974Z,14.40
2022-09-15T14:31:53.306Z,7.63
2022-09-15T14:34:24.154Z,10.95
2022-09-15T14:37:12.726Z,10.60
2022-09-15T14:39:40.419Z,9.85
2022-09-15T14:42:36.043Z,12.57
2022-09-15T14:48:11.399Z,13.32
2022-09-15T14:50:38.930Z,11.32
2022-09-15T14:53:24.035Z,14.57
2022-09-15T14:56:07.659Z,14.70
2022-09-15T14:58:43.345Z,11.73
2022-09-15T15:01:45.455Z,15.13
2022-09-15T15:04:19.088Z,19.60
2022-09-15T15:06:58.852Z,12.02
2022-09-15T15:09:41.393Z,13.30
2022-09-15T15:12:20.708Z,11.80
2022-09-15T15:14:48.648Z,11.77
2022-09-15T15:17:25.242Z,12.25
2022-09-15T15:20:12.132Z,17.45
2022-09-15T15:22:41.773Z,10.02
2022-09-15T15:25:30.059Z,9.15
2022-09-15T15:27:59.176Z,7.65
2022-09-15T15:30:32.030Z,12.88
2022-09-15T15:33:06.800Z,9.30
2022-09-15T15:35:35.830Z,9.57
2022-09-15T15:38:14.072Z,7.70
2022-09-15T15:40:42.417Z,11.82
2022-09-15T15:43:25.241Z,8.32
2022-09-15T15:46:00.725Z,11.88
2022-09-15T15:48:36.911Z,13.77
2022-09-15T15:51:07.524Z,9.70
2022-09-15T15:53:35.613Z,9.43
2022-09-15T15:56:03.147Z,8.82
2022-09-15T15:58:31.344Z,13.00
2022-09-15T16:00:58.759Z,9.80
2022-09-15T16:03:26.270Z,9.40
2022-09-15T16:05:57.629Z,12.15
2022-09-15T16:08:30.046Z,12.53
2022-09-15T16:10:58.226Z,11.95
2022-09-15T16:13:26.004Z,11.85
2022-09-15T16:15:54.298Z,7.20
2022-09-15T16:18:21.784Z,9.60
2022-09-15T16:20:49.530Z,8.63
2022-09-15T16:23:19.129Z,8.10
2022-09-15T16:26:05.176Z,14.75
2022-09-15T16:28:32.663Z,10.82
2022-09-15T16:31:00.156Z,11.57
2022-09-15T16:33:27.600Z,8.57
2022-09-15T16:35:55.202Z,13.90
2022-09-15T16:38:25.962Z,9.23
2022-09-15T16:40:53.386Z,15.75
2022-09-15T16:43:22.973Z,12.10
2022-09-15T16:45:51.433Z,16.65
2022-09-15T16:48:19.420Z,8.80
2022-09-15T16:53:36.407Z,9.25
2022-09-15T16:56:04.276Z,16.42
2022-09-15T16:58:31.768Z,12.25
2022-09-15T17:00:59.331Z,13.68
2022-09-15T17:03:27.531Z,16.77
2022-09-15T17:06:00.376Z,10.80
2022-09-15T17:08:33.176Z,8.45
2022-09-15T17:11:03.269Z,8.63
2022-09-15T17:13:33.994Z,10.85
2022-09-15T17:16:02.193Z,10.00
2022-09-15T17:18:30.303Z,10.02
2022-09-15T17:20:57.893Z,11.90
2022-09-15T17:23:31.807Z,20.50
2022-09-15T17:26:01.316Z,19.88
2022-09-15T17:28:31.790Z,11.85
2022-09-15T17:31:02.267Z,11.52
2022-09-15T17:33:31.371Z,12.07
2022-09-15T17:35:59.810Z,13.73
2022-09-15T17:38:27.514Z,9.43
2022-09-15T17:40:55.525Z,13.80
2022-09-15T17:43:25.591Z,10.73
2022-09-15T17:45:53.302Z,19.13
2022-09-15T17:48:22.157Z,12.63
2022-09-15T17:50:49.709Z,15.40
2022-09-15T17:53:21.660Z,14.43
2022-09-15T17:55:50.173Z,17.13
2022-09-15T17:58:18.204Z,10.50
2022-09-15T18:00:47.613Z,11.07
2022-09-15T18:03:17.812Z,15.27
2022-09-15T18:05:45.882Z,10.38
2022-09-15T18:08:13.483Z,12.07
2022-09-15T18:10:40.857Z,11.95
2022-09-15T18:13:14.573Z,10.25
2022-09-15T18:15:42.914Z,16.63
2022-09-15T18:18:14.775Z,12.10
2022-09-15T18:20:42.798Z,15.55
2022-09-15T18:23:18.814Z,13.93
2022-09-15T18:25:47.396Z,13.35
2022-09-15T18:28:15.412Z,9.18
2022-09-15T18:30:44.719Z,14.52
2022-09-15T18:33:38.595Z,8.95
2022-09-15T18:36:07.415Z,12.57
2022-09-15T18:38:34.827Z,13.77
2022-09-15T18:41:03.792Z,10.68
2022-09-15T18:43:31.418Z,10.43
2022-09-15T18:46:00.294Z,13.38
2022-09-15T18:48:28.033Z,9.32
2022-09-15T18:50:55.946Z,14.55
2022-09-15T18:53:23.481Z,14.88
2022-09-15T18:55:50.817Z,13.38
2022-09-15T18:58:19.299Z,9.90
2022-09-15T19:00:47.145Z,13.35
2022-09-15T19:03:14.539Z,12.80
2022-09-15T19:05:41.991Z,9.00
2022-09-15T19:08:11.390Z,11.13
2022-09-15T19:10:41.552Z,13.77
2022-09-15T19:13:11.508Z,11.65
2022-09-15T19:15:39.950Z,15.02
2022-09-15T19:18:07.482Z,20.25
2022-09-15T19:20:35.123Z,26.10
2022-09-15T19:23:03.207Z,16.52
2022-09-15T19:25:30.592Z,12.88
2022-09-15T19:27:58.002Z,18.33
2022-09-15T19:30:25.461Z,16.13
2022-09-15T19:32:53.156Z,18.05
2022-09-15T19:35:21.300Z,16.13
2022-09-15T19:37:48.763Z,18.50
2022-09-15T19:40:16.857Z,15.18
2022-09-15T19:42:44.908Z,16.00
2022-09-15T19:45:13.548Z,16.98
2022-09-15T19:47:41.964Z,14.80
2022-09-15T19:50:11.738Z,16.90
2022-09-15T19:52:39.536Z,13.10
2022-09-15T19:55:09.589Z,12.18
2022-09-15T19:57:41.065Z,16.17
2022-09-15T20:00:10.852Z,21.88
2022-09-15T20:02:39.155Z,12.77
2022-09-15T20:05:07.690Z,12.57
2022-09-15T20:07:35.103Z,17.13
2022-09-15T20:10:02.701Z,21.15
2022-09-15T20:12:31.257Z,14.35
2022-09-15T20:14:58.745Z,15.35
2022-09-15T20:17:26.291Z,12.95
2022-09-15T20:19:53.776Z,14.90
2022-09-15T20:22:21.849Z,15.45
2022-09-15T20:24:49.387Z,11.27
2022-09-15T20:27:17.007Z,20.08
2022-09-15T20:29:44.400Z,16.08
2022-09-15T20:32:11.834Z,10.90
2022-09-15T20:34:39.315Z,12.48
2022-09-15T20:37:07.129Z,13.93
2022-09-15T20:39:35.379Z,14.25
2022-09-15T20:42:02.785Z,17.80
2022-09-15T20:44:30.166Z,10.80
2022-09-15T20:46:57.552Z,11.57
2022-09-15T20:49:24.979Z,12.50
2022-09-15T20:51:52.479Z,10.10
2022-09-15T20:54:20.043Z,10.52
2022-09-15T20:56:47.415Z,10.93
2022-09-15T20:59:15.201Z,16.20
2022-09-15T21:01:43.571Z,11.95
2022-09-15T21:04:11.232Z,12.10
2022-09-15T21:06:39.030Z,11.60
2022-09-15T21:09:07.234Z,14.15
2022-09-15T21:11:35.358Z,19.05
2022-09-15T21:14:03.285Z,9.80
2022-09-15T21:16:30.995Z,16.55
2022-09-15T21:18:58.784Z,13.38
2022-09-15T21:21:29.834Z,20.02
2022-09-15T21:24:01.276Z,13.82
2022-09-15T21:26:59.933Z,17.53
2022-09-15T21:29:28.464Z,16.42
2022-09-15T21:31:56.051Z,14.57
2022-09-15T21:34:24.029Z,13.65
2022-09-15T21:36:54.319Z,16.17
2022-09-15T21:39:21.697Z,16.85
2022-09-15T21:41:49.758Z,15.40
2022-09-15T21:44:17.185Z,13.55
2022-09-15T21:46:46.985Z,10.90
2022-09-15T21:49:14.713Z,14.73
2022-09-15T21:51:42.169Z,15.32
2022-09-15T21:54:10.066Z,14.50
2022-09-15T21:56:37.630Z,12.73
2022-09-15T21:59:05.311Z,9.98
2022-09-15T22:01:33.491Z,11.63
2022-09-15T22:04:03.773Z,11.65
2022-09-15T22:06:33.705Z,15.07
2022-09-15T22:09:03.978Z,17.25
2022-09-15T22:11:32.209Z,8.05
2022-09-15T22:14:02.786Z,12.18
2022-09-15T22:16:30.507Z,9.05
2022-09-15T22:18:57.995Z,13.02
2022-09-15T22:21:29.225Z,16.70
2022-09-15T22:23:57.799Z,12.80
2022-09-15T22:26:31.105Z,13.30
2022-09-15T22:29:02.339Z,9.07
2022-09-15T22:31:30.580Z,13.15
2022-09-15T22:33:58.098Z,15.10
2022-09-15T22:36:29.547Z,9.32
2022-09-15T22:39:05.478Z,11.80
2022-09-15T22:41:36.253Z,15.20
2022-09-15T22:44:04.953Z,13.88
2022-09-15T22:46:32.368Z,16.58
2022-09-15T22:49:00.293Z,14.20
2022-09-15T22:51:27.998Z,11.30
2022-09-15T22:53:57.084Z,12.07
2022-09-15T22:56:26.214Z,11.55
2022-09-15T22:58:55.557Z,10.95
2022-09-15T23:01:26.924Z,12.35
2022-09-15T23:03:57.289Z,14.55
2022-09-15T23:06:26.519Z,13.85
2022-09-15T23:09:00.070Z,9.20
2022-09-15T23:11:29.307Z,10.75
2022-09-15T23:13:56.851Z,12.27
2022-09-15T23:16:25.214Z,15.13
2022-09-15T23:18:53.865Z,14.90
2022-09-15T23:21:21.821Z,14.77
2022-09-15T23:23:49.396Z,12.45
2022-09-15T23:26:19.509Z,10.50
2022-09-15T23:28:47.622Z,15.35
2022-09-15T23:31:15.779Z,11.75
2022-09-15T23:33:43.738Z,12.20
2022-09-15T23:36:14.092Z,11.93
2022-09-15T23:38:44.193Z,10.70
2022-09-15T23:41:12.434Z,16.45
2022-09-15T23:43:40.153Z,10.90
2022-09-15T23:46:07.628Z,10.77
2022-09-15T23:48:35.228Z,17.25
2022-09-15T23:51:03.174Z,15.10
2022-09-15T23:53:30.605Z,13.10
2022-09-15T23:55:58.340Z,7.93
2022-09-15T23:58:25.721Z,9.40
